sensor_id;sensor_type;location;lat;lon;timestamp;temperature;humidity
52979;DHT22;63430;53.186;6.598;2022-11-15T00:00:50;7.80;99.90
52979;DHT22;63430;53.186;6.598;2022-11-15T00:03:13;7.80;99.90
52979;DHT22;63430;53.186;6.598;2022-11-15T00:05:34;7.80;99.90
52979;DHT22;63430;53.186;6.598;2022-11-15T00:08:01;7.80;99.90
52979;DHT22;63430;53.186;6.598;2022-11-15T00:10:32;7.70;99.90
52979;DHT22;63430;53.186;6.598;2022-11-15T00:12:53;7.70;99.90
52979;DHT22;63430;53.186;6.598;2022-11-15T00:15:14;7.70;99.90
52979;DHT22;63430;53.186;6.598;2022-11-15T00:17:35;7.60;99.90
52979;DHT22;63430;53.186;6.598;2022-11-15T00:19:56;7.60;99.90
52979;DHT22;63430;53.186;6.598;2022-11-15T00:22:17;7.50;99.90
52979;DHT22;63430;53.186;6.598;2022-11-15T00:24:41;7.50;99.90
52979;DHT22;63430;53.186;6.598;2022-11-15T00:27:04;7.40;99.90
52979;DHT22;63430;53.186;6.598;2022-11-15T00:29:28;7.40;99.90
52979;DHT22;63430;53.186;6.598;2022-11-15T00:31:49;7.30;99.90
52979;DHT22;63430;53.186;6.598;2022-11-15T00:34:10;7.30;99.90
52979;DHT22;63430;53.186;6.598;2022-11-15T00:36:32;7.20;99.90
52979;DHT22;63430;53.186;6.598;2022-11-15T00:38:53;7.20;99.90
52979;DHT22;63430;53.186;6.598;2022-11-15T00:41:20;7.20;99.90
52979;DHT22;63430;53.186;6.598;2022-11-15T00:43:41;7.20;99.90
52979;DHT22;63430;53.186;6.598;2022-11-15T00:46:07;7.20;99.90
52979;DHT22;63430;53.186;6.598;2022-11-15T00:48:30;7.20;99.90
52979;DHT22;63430;53.186;6.598;2022-11-15T00:50:55;7.30;99.90
52979;DHT22;63430;53.186;6.598;2022-11-15T00:53:17;7.30;99.90
52979;DHT22;63430;53.186;6.598;2022-11-15T00:55:38;7.30;99.90
52979;DHT22;63430;53.186;6.598;2022-11-15T00:58:01;7.30;99.90
52979;DHT22;63430;53.186;6.598;2022-11-15T01:00:25;7.30;99.90
52979;DHT22;63430;53.186;6.598;2022-11-15T01:02:48;8.40;99.90
52979;DHT22;63430;53.186;6.598;2022-11-15T01:05:09;8.30;99.90
52979;DHT22;63430;53.186;6.598;2022-11-15T01:07:30;7.90;99.90
52979;DHT22;63430;53.186;6.598;2022-11-15T01:09:51;7.50;99.90
52979;DHT22;63430;53.186;6.598;2022-11-15T01:12:13;7.50;99.90
52979;DHT22;63430;53.186;6.598;2022-11-15T01:14:36;8.30;99.90
52979;DHT22;63430;53.186;6.598;2022-11-15T01:16:57;8.00;99.90
52979;DHT22;63430;53.186;6.598;2022-11-15T01:19:18;7.50;99.90
52979;DHT22;63430;53.186;6.598;2022-11-15T01:21:39;7.50;99.90
52979;DHT22;63430;53.186;6.598;2022-11-15T01:24:00;7.80;99.90
52979;DHT22;63430;53.186;6.598;2022-11-15T01:26:21;7.40;99.90
52979;DHT22;63430;53.186;6.598;2022-11-15T01:28:43;7.40;99.90
52979;DHT22;63430;53.186;6.598;2022-11-15T01:31:09;7.40;99.90
52979;DHT22;63430;53.186;6.598;2022-11-15T01:33:30;8.30;99.90
52979;DHT22;63430;53.186;6.598;2022-11-15T01:35:52;7.90;99.90
52979;DHT22;63430;53.186;6.598;2022-11-15T01:38:16;7.50;99.90
52979;DHT22;63430;53.186;6.598;2022-11-15T01:40:39;8.00;99.90
52979;DHT22;63430;53.186;6.598;2022-11-15T01:43:21;8.80;99.90
52979;DHT22;63430;53.186;6.598;2022-11-15T01:45:51;7.50;99.90
52979;DHT22;63430;53.186;6.598;2022-11-15T01:48:16;7.50;99.90
52979;DHT22;63430;53.186;6.598;2022-11-15T01:50:36;7.50;99.90
52979;DHT22;63430;53.186;6.598;2022-11-15T01:52:58;7.50;99.90
52979;DHT22;63430;53.186;6.598;2022-11-15T01:55:21;8.50;99.90
52979;DHT22;63430;53.186;6.598;2022-11-15T01:57:45;7.50;99.90
52979;DHT22;63430;53.186;6.598;2022-11-15T02:00:15;8.00;99.90
52979;DHT22;63430;53.186;6.598;2022-11-15T02:02:37;7.50;99.90
52979;DHT22;63430;53.186;6.598;2022-11-15T02:05:03;7.50;99.90
52979;DHT22;63430;53.186;6.598;2022-11-15T02:07:24;7.50;99.90
52979;DHT22;63430;53.186;6.598;2022-11-15T02:09:49;7.50;99.90
52979;DHT22;63430;53.186;6.598;2022-11-15T02:12:12;8.60;99.90
52979;DHT22;63430;53.186;6.598;2022-11-15T02:14:34;7.40;99.90
52979;DHT22;63430;53.186;6.598;2022-11-15T02:16:59;7.50;99.90
52979;DHT22;63430;53.186;6.598;2022-11-15T02:19:36;7.50;99.90
52979;DHT22;63430;53.186;6.598;2022-11-15T02:22:22;7.90;99.90
52979;DHT22;63430;53.186;6.598;2022-11-15T02:25:03;7.50;99.90
52979;DHT22;63430;53.186;6.598;2022-11-15T02:27:54;7.50;99.90
52979;DHT22;63430;53.186;6.598;2022-11-15T02:30:25;7.50;99.90
52979;DHT22;63430;53.186;6.598;2022-11-15T02:32:54;7.50;99.90
52979;DHT22;63430;53.186;6.598;2022-11-15T02:35:24;7.50;99.90
52979;DHT22;63430;53.186;6.598;2022-11-15T02:37:53;7.50;99.90
52979;DHT22;63430;53.186;6.598;2022-11-15T02:40:27;7.50;99.90
52979;DHT22;63430;53.186;6.598;2022-11-15T02:42:55;7.00;99.90
52979;DHT22;63430;53.186;6.598;2022-11-15T02:45:41;8.80;99.90
52979;DHT22;63430;53.186;6.598;2022-11-15T02:48:06;7.50;99.90
52979;DHT22;63430;53.186;6.598;2022-11-15T02:50:29;7.50;99.90
52979;DHT22;63430;53.186;6.598;2022-11-15T02:52:52;7.50;99.90
52979;DHT22;63430;53.186;6.598;2022-11-15T02:55:29;7.50;99.90
52979;DHT22;63430;53.186;6.598;2022-11-15T02:57:52;7.40;99.90
52979;DHT22;63430;53.186;6.598;2022-11-15T03:00:17;6.90;99.90
52979;DHT22;63430;53.186;6.598;2022-11-15T03:05:42;7.50;99.90
52979;DHT22;63430;53.186;6.598;2022-11-15T03:08:10;7.50;99.90
52979;DHT22;63430;53.186;6.598;2022-11-15T03:10:42;7.50;99.90
52979;DHT22;63430;53.186;6.598;2022-11-15T03:13:09;8.20;99.90
52979;DHT22;63430;53.186;6.598;2022-11-15T03:15:38;8.00;99.90
52979;DHT22;63430;53.186;6.598;2022-11-15T03:18:08;7.50;99.90
52979;DHT22;63430;53.186;6.598;2022-11-15T03:20:31;7.50;99.90
52979;DHT22;63430;53.186;6.598;2022-11-15T03:23:00;7.50;99.90
52979;DHT22;63430;53.186;6.598;2022-11-15T03:25:24;7.60;99.90
52979;DHT22;63430;53.186;6.598;2022-11-15T03:27:48;7.60;99.90
52979;DHT22;63430;53.186;6.598;2022-11-15T03:30:11;7.60;99.90
52979;DHT22;63430;53.186;6.598;2022-11-15T03:32:37;7.60;99.90
52979;DHT22;63430;53.186;6.598;2022-11-15T03:35:04;7.60;99.90
52979;DHT22;63430;53.186;6.598;2022-11-15T03:37:32;7.60;99.90
52979;DHT22;63430;53.186;6.598;2022-11-15T03:39:54;7.70;99.90
52979;DHT22;63430;53.186;6.598;2022-11-15T03:42:21;7.70;99.90
52979;DHT22;63430;53.186;6.598;2022-11-15T03:44:48;7.70;99.90
52979;DHT22;63430;53.186;6.598;2022-11-15T03:47:15;8.10;99.90
52979;DHT22;63430;53.186;6.598;2022-11-15T03:49:38;7.70;99.90
52979;DHT22;63430;53.186;6.598;2022-11-15T03:52:05;7.70;99.90
52979;DHT22;63430;53.186;6.598;2022-11-15T03:54:26;7.70;99.90
52979;DHT22;63430;53.186;6.598;2022-11-15T03:56:47;7.70;99.90
52979;DHT22;63430;53.186;6.598;2022-11-15T03:59:08;7.70;99.90
52979;DHT22;63430;53.186;6.598;2022-11-15T04:01:29;7.70;99.90
52979;DHT22;63430;53.186;6.598;2022-11-15T04:03:50;7.80;99.90
52979;DHT22;63430;53.186;6.598;2022-11-15T04:06:12;7.80;99.90
52979;DHT22;63430;53.186;6.598;2022-11-15T04:08:35;7.80;99.90
52979;DHT22;63430;53.186;6.598;2022-11-15T04:10:59;8.60;99.90
52979;DHT22;63430;53.186;6.598;2022-11-15T04:13:22;7.80;99.90
52979;DHT22;63430;53.186;6.598;2022-11-15T04:15:42;7.80;99.90
52979;DHT22;63430;53.186;6.598;2022-11-15T04:18:03;7.80;99.90
52979;DHT22;63430;53.186;6.598;2022-11-15T04:20:25;7.80;99.90
52979;DHT22;63430;53.186;6.598;2022-11-15T04:23:10;7.90;99.90
52979;DHT22;63430;53.186;6.598;2022-11-15T04:25:56;7.90;99.90
52979;DHT22;63430;53.186;6.598;2022-11-15T04:28:19;7.90;99.90
52979;DHT22;63430;53.186;6.598;2022-11-15T04:30:40;7.90;99.90
52979;DHT22;63430;53.186;6.598;2022-11-15T04:33:05;7.90;99.90
52979;DHT22;63430;53.186;6.598;2022-11-15T04:35:26;8.00;99.90
52979;DHT22;63430;53.186;6.598;2022-11-15T04:37:47;8.00;99.90
52979;DHT22;63430;53.186;6.598;2022-11-15T04:40:09;7.90;99.90
52979;DHT22;63430;53.186;6.598;2022-11-15T04:42:33;8.00;99.90
52979;DHT22;63430;53.186;6.598;2022-11-15T04:44:56;8.00;99.90
52979;DHT22;63430;53.186;6.598;2022-11-15T04:47:17;8.00;99.90
52979;DHT22;63430;53.186;6.598;2022-11-15T04:49:39;8.00;99.90
52979;DHT22;63430;53.186;6.598;2022-11-15T04:52:00;8.00;99.90
52979;DHT22;63430;53.186;6.598;2022-11-15T04:54:21;8.00;99.90
52979;DHT22;63430;53.186;6.598;2022-11-15T04:56:43;8.00;99.90
52979;DHT22;63430;53.186;6.598;2022-11-15T04:59:06;8.00;99.90
52979;DHT22;63430;53.186;6.598;2022-11-15T05:01:27;8.00;99.90
52979;DHT22;63430;53.186;6.598;2022-11-15T05:03:48;8.10;99.90
52979;DHT22;63430;53.186;6.598;2022-11-15T05:06:28;8.10;99.90
52979;DHT22;63430;53.186;6.598;2022-11-15T05:08:49;8.10;99.90
52979;DHT22;63430;53.186;6.598;2022-11-15T05:11:13;8.80;99.90
52979;DHT22;63430;53.186;6.598;2022-11-15T05:13:34;8.10;99.90
52979;DHT22;63430;53.186;6.598;2022-11-15T05:15:57;8.20;99.90
52979;DHT22;63430;53.186;6.598;2022-11-15T05:18:19;8.20;99.90
52979;DHT22;63430;53.186;6.598;2022-11-15T05:20:43;8.30;99.90
52979;DHT22;63430;53.186;6.598;2022-11-15T05:23:04;8.30;99.90
52979;DHT22;63430;53.186;6.598;2022-11-15T05:25:26;8.20;99.90
52979;DHT22;63430;53.186;6.598;2022-11-15T05:27:47;8.90;99.90
52979;DHT22;63430;53.186;6.598;2022-11-15T05:30:09;8.30;99.90
52979;DHT22;63430;53.186;6.598;2022-11-15T05:32:32;8.30;99.90
52979;DHT22;63430;53.186;6.598;2022-11-15T05:34:54;8.30;99.90
52979;DHT22;63430;53.186;6.598;2022-11-15T05:37:16;8.30;99.90
52979;DHT22;63430;53.186;6.598;2022-11-15T05:39:37;8.30;99.90
52979;DHT22;63430;53.186;6.598;2022-11-15T05:42:02;8.30;99.90
52979;DHT22;63430;53.186;6.598;2022-11-15T05:44:25;8.40;99.90
52979;DHT22;63430;53.186;6.598;2022-11-15T05:46:47;8.40;99.90
52979;DHT22;63430;53.186;6.598;2022-11-15T05:49:14;8.80;99.90
52979;DHT22;63430;53.186;6.598;2022-11-15T05:51:40;7.80;99.90
52979;DHT22;63430;53.186;6.598;2022-11-15T05:54:02;8.50;99.90
52979;DHT22;63430;53.186;6.598;2022-11-15T05:56:24;8.60;99.90
52979;DHT22;63430;53.186;6.598;2022-11-15T05:58:45;8.60;99.90
52979;DHT22;63430;53.186;6.598;2022-11-15T06:01:06;8.60;99.90
52979;DHT22;63430;53.186;6.598;2022-11-15T06:03:27;8.70;99.90
52979;DHT22;63430;53.186;6.598;2022-11-15T06:05:52;8.70;99.90
52979;DHT22;63430;53.186;6.598;2022-11-15T06:08:14;8.70;99.90
52979;DHT22;63430;53.186;6.598;2022-11-15T06:10:35;8.80;99.90
52979;DHT22;63430;53.186;6.598;2022-11-15T06:12:57;8.80;99.90
52979;DHT22;63430;53.186;6.598;2022-11-15T06:15:18;8.80;99.90
52979;DHT22;63430;53.186;6.598;2022-11-15T06:17:39;8.80;99.90
52979;DHT22;63430;53.186;6.598;2022-11-15T06:20:02;8.80;99.90
52979;DHT22;63430;53.186;6.598;2022-11-15T06:22:26;8.80;99.90
52979;DHT22;63430;53.186;6.598;2022-11-15T06:24:48;10.00;99.90
52979;DHT22;63430;53.186;6.598;2022-11-15T06:27:10;9.30;99.90
52979;DHT22;63430;53.186;6.598;2022-11-15T06:29:31;9.50;99.90
52979;DHT22;63430;53.186;6.598;2022-11-15T06:31:52;9.00;99.90
52979;DHT22;63430;53.186;6.598;2022-11-15T06:34:14;9.90;99.90
52979;DHT22;63430;53.186;6.598;2022-11-15T06:36:36;9.00;99.90
52979;DHT22;63430;53.186;6.598;2022-11-15T06:39:02;9.10;99.90
52979;DHT22;63430;53.186;6.598;2022-11-15T06:41:24;9.40;99.90
52979;DHT22;63430;53.186;6.598;2022-11-15T06:43:45;9.20;99.90
52979;DHT22;63430;53.186;6.598;2022-11-15T06:46:08;9.30;99.90
52979;DHT22;63430;53.186;6.598;2022-11-15T06:48:31;9.30;99.90
52979;DHT22;63430;53.186;6.598;2022-11-15T06:50:52;9.30;99.90
52979;DHT22;63430;53.186;6.598;2022-11-15T06:53:13;9.40;99.90
52979;DHT22;63430;53.186;6.598;2022-11-15T06:55:37;9.40;99.90
52979;DHT22;63430;53.186;6.598;2022-11-15T06:57:58;9.50;99.90
52979;DHT22;63430;53.186;6.598;2022-11-15T07:00:21;9.50;99.90
52979;DHT22;63430;53.186;6.598;2022-11-15T07:02:42;9.50;99.90
52979;DHT22;63430;53.186;6.598;2022-11-15T07:05:06;9.60;99.90
52979;DHT22;63430;53.186;6.598;2022-11-15T07:07:28;9.60;99.90
52979;DHT22;63430;53.186;6.598;2022-11-15T07:09:49;9.80;99.90
52979;DHT22;63430;53.186;6.598;2022-11-15T07:12:16;9.70;99.90
52979;DHT22;63430;53.186;6.598;2022-11-15T07:14:36;9.70;99.90
52979;DHT22;63430;53.186;6.598;2022-11-15T07:17:03;9.70;99.90
52979;DHT22;63430;53.186;6.598;2022-11-15T07:19:35;9.70;99.90
52979;DHT22;63430;53.186;6.598;2022-11-15T07:21:57;9.70;99.90
52979;DHT22;63430;53.186;6.598;2022-11-15T07:24:17;9.80;99.90
52979;DHT22;63430;53.186;6.598;2022-11-15T07:26:38;9.70;99.90
52979;DHT22;63430;53.186;6.598;2022-11-15T07:29:22;9.80;99.90
52979;DHT22;63430;53.186;6.598;2022-11-15T07:31:43;9.80;99.90
52979;DHT22;63430;53.186;6.598;2022-11-15T07:34:04;9.90;99.90
52979;DHT22;63430;53.186;6.598;2022-11-15T07:36:25;9.90;99.90
52979;DHT22;63430;53.186;6.598;2022-11-15T07:38:49;9.90;99.90
52979;DHT22;63430;53.186;6.598;2022-11-15T07:41:12;9.90;99.90
52979;DHT22;63430;53.186;6.598;2022-11-15T07:43:33;10.00;99.90
52979;DHT22;63430;53.186;6.598;2022-11-15T07:46:04;10.00;99.90
52979;DHT22;63430;53.186;6.598;2022-11-15T07:48:32;10.00;99.90
52979;DHT22;63430;53.186;6.598;2022-11-15T07:51:04;10.00;99.90
52979;DHT22;63430;53.186;6.598;2022-11-15T07:53:33;10.10;99.90
52979;DHT22;63430;53.186;6.598;2022-11-15T07:55:55;10.30;99.90
52979;DHT22;63430;53.186;6.598;2022-11-15T07:58:16;10.20;99.90
52979;DHT22;63430;53.186;6.598;2022-11-15T08:00:39;10.20;99.90
52979;DHT22;63430;53.186;6.598;2022-11-15T08:03:16;10.30;99.90
52979;DHT22;63430;53.186;6.598;2022-11-15T08:05:39;10.20;99.90
52979;DHT22;63430;53.186;6.598;2022-11-15T08:08:04;10.30;99.90
52979;DHT22;63430;53.186;6.598;2022-11-15T08:10:26;10.30;99.90
52979;DHT22;63430;53.186;6.598;2022-11-15T08:12:47;11.30;99.90
52979;DHT22;63430;53.186;6.598;2022-11-15T08:15:14;10.40;99.90
52979;DHT22;63430;53.186;6.598;2022-11-15T08:17:35;10.40;99.90
52979;DHT22;63430;53.186;6.598;2022-11-15T08:19:58;10.40;99.90
52979;DHT22;63430;53.186;6.598;2022-11-15T08:22:19;10.60;99.90
52979;DHT22;63430;53.186;6.598;2022-11-15T08:24:40;10.70;99.90
52979;DHT22;63430;53.186;6.598;2022-11-15T08:27:02;10.50;99.90
52979;DHT22;63430;53.186;6.598;2022-11-15T08:29:23;10.50;99.90
52979;DHT22;63430;53.186;6.598;2022-11-15T08:31:45;10.60;99.90
52979;DHT22;63430;53.186;6.598;2022-11-15T08:34:06;10.60;99.90
52979;DHT22;63430;53.186;6.598;2022-11-15T08:36:32;11.80;99.90
52979;DHT22;63430;53.186;6.598;2022-11-15T08:39:08;10.70;99.90
52979;DHT22;63430;53.186;6.598;2022-11-15T08:41:32;11.00;99.90
52979;DHT22;63430;53.186;6.598;2022-11-15T08:43:56;11.80;99.90
52979;DHT22;63430;53.186;6.598;2022-11-15T08:46:18;10.80;99.90
52979;DHT22;63430;53.186;6.598;2022-11-15T08:48:40;10.80;99.90
52979;DHT22;63430;53.186;6.598;2022-11-15T08:51:02;10.80;99.90
52979;DHT22;63430;53.186;6.598;2022-11-15T08:53:27;10.90;99.90
52979;DHT22;63430;53.186;6.598;2022-11-15T08:55:52;10.80;99.90
52979;DHT22;63430;53.186;6.598;2022-11-15T08:58:13;10.90;99.90
52979;DHT22;63430;53.186;6.598;2022-11-15T09:00:35;11.30;99.90
52979;DHT22;63430;53.186;6.598;2022-11-15T09:02:56;11.00;99.90
52979;DHT22;63430;53.186;6.598;2022-11-15T09:05:17;11.60;99.90
52979;DHT22;63430;53.186;6.598;2022-11-15T09:07:39;11.70;99.90
52979;DHT22;63430;53.186;6.598;2022-11-15T09:10:04;11.20;99.90
52979;DHT22;63430;53.186;6.598;2022-11-15T09:12:25;11.20;99.90
52979;DHT22;63430;53.186;6.598;2022-11-15T09:14:46;11.20;99.90
52979;DHT22;63430;53.186;6.598;2022-11-15T09:17:08;11.30;99.90
52979;DHT22;63430;53.186;6.598;2022-11-15T09:19:31;11.30;99.90
52979;DHT22;63430;53.186;6.598;2022-11-15T09:21:52;11.40;99.90
52979;DHT22;63430;53.186;6.598;2022-11-15T09:24:13;11.40;99.90
52979;DHT22;63430;53.186;6.598;2022-11-15T09:26:37;11.40;99.90
52979;DHT22;63430;53.186;6.598;2022-11-15T09:28:57;11.50;99.90
52979;DHT22;63430;53.186;6.598;2022-11-15T09:31:20;11.80;99.90
52979;DHT22;63430;53.186;6.598;2022-11-15T09:33:43;11.70;99.90
52979;DHT22;63430;53.186;6.598;2022-11-15T09:36:07;11.40;99.90
52979;DHT22;63430;53.186;6.598;2022-11-15T09:38:28;11.50;99.90
52979;DHT22;63430;53.186;6.598;2022-11-15T09:40:57;11.50;99.90
52979;DHT22;63430;53.186;6.598;2022-11-15T09:43:31;11.80;99.90
52979;DHT22;63430;53.186;6.598;2022-11-15T09:46:01;11.50;99.90
52979;DHT22;63430;53.186;6.598;2022-11-15T09:48:49;11.60;99.90
52979;DHT22;63430;53.186;6.598;2022-11-15T09:51:12;11.60;99.90
52979;DHT22;63430;53.186;6.598;2022-11-15T09:53:22;11.90;99.90
52979;DHT22;63430;53.186;6.598;2022-11-15T09:55:53;11.70;99.90
52979;DHT22;63430;53.186;6.598;2022-11-15T09:58:07;11.70;99.90
52979;DHT22;63430;53.186;6.598;2022-11-15T10:00:20;11.70;99.90
52979;DHT22;63430;53.186;6.598;2022-11-15T10:03:06;11.70;99.90
52979;DHT22;63430;53.186;6.598;2022-11-15T10:05:11;11.70;99.90
52979;DHT22;63430;53.186;6.598;2022-11-15T10:07:18;11.70;99.90
52979;DHT22;63430;53.186;6.598;2022-11-15T10:09:24;11.80;99.90
52979;DHT22;63430;53.186;6.598;2022-11-15T10:11:31;11.70;99.90
52979;DHT22;63430;53.186;6.598;2022-11-15T10:13:42;11.70;99.90
52979;DHT22;63430;53.186;6.598;2022-11-15T10:15:48;11.70;99.90
52979;DHT22;63430;53.186;6.598;2022-11-15T10:18:06;11.30;99.90
52979;DHT22;63430;53.186;6.598;2022-11-15T10:20:15;11.70;99.90
52979;DHT22;63430;53.186;6.598;2022-11-15T10:22:26;11.80;99.90
52979;DHT22;63430;53.186;6.598;2022-11-15T10:24:35;11.80;99.90
52979;DHT22;63430;53.186;6.598;2022-11-15T10:26:44;11.20;99.90
52979;DHT22;63430;53.186;6.598;2022-11-15T10:28:47;12.40;99.90
52979;DHT22;63430;53.186;6.598;2022-11-15T10:30:54;11.90;99.90
52979;DHT22;63430;53.186;6.598;2022-11-15T10:33:18;11.90;99.90
52979;DHT22;63430;53.186;6.598;2022-11-15T10:35:25;11.90;99.90
52979;DHT22;63430;53.186;6.598;2022-11-15T10:37:29;12.00;99.90
52979;DHT22;63430;53.186;6.598;2022-11-15T10:39:31;12.00;99.90
52979;DHT22;63430;53.186;6.598;2022-11-15T10:41:38;12.20;99.90
52979;DHT22;63430;53.186;6.598;2022-11-15T10:43:41;12.10;99.90
52979;DHT22;63430;53.186;6.598;2022-11-15T10:45:46;12.10;99.90
52979;DHT22;63430;53.186;6.598;2022-11-15T10:47:52;12.10;99.90
52979;DHT22;63430;53.186;6.598;2022-11-15T10:50:05;12.50;99.90
52979;DHT22;63430;53.186;6.598;2022-11-15T10:52:16;12.10;99.90
52979;DHT22;63430;53.186;6.598;2022-11-15T10:54:24;12.00;99.90
52979;DHT22;63430;53.186;6.598;2022-11-15T10:56:27;12.00;99.90
52979;DHT22;63430;53.186;6.598;2022-11-15T10:58:34;12.00;99.90
52979;DHT22;63430;53.186;6.598;2022-11-15T11:00:38;12.00;99.90
52979;DHT22;63430;53.186;6.598;2022-11-15T11:02:57;11.90;99.90
52979;DHT22;63430;53.186;6.598;2022-11-15T11:05:04;12.90;99.90
52979;DHT22;63430;53.186;6.598;2022-11-15T11:07:20;12.00;99.90
52979;DHT22;63430;53.186;6.598;2022-11-15T11:09:33;12.00;99.90
52979;DHT22;63430;53.186;6.598;2022-11-15T11:11:45;12.00;99.90
52979;DHT22;63430;53.186;6.598;2022-11-15T11:13:48;12.00;99.90
52979;DHT22;63430;53.186;6.598;2022-11-15T11:15:55;12.00;99.90
52979;DHT22;63430;53.186;6.598;2022-11-15T11:18:07;12.00;99.90
52979;DHT22;63430;53.186;6.598;2022-11-15T11:20:20;12.90;99.90
52979;DHT22;63430;53.186;6.598;2022-11-15T11:22:32;12.00;99.90
52979;DHT22;63430;53.186;6.598;2022-11-15T11:24:40;12.00;99.90
52979;DHT22;63430;53.186;6.598;2022-11-15T11:26:54;12.00;99.90
52979;DHT22;63430;53.186;6.598;2022-11-15T11:29:19;12.30;99.90
52979;DHT22;63430;53.186;6.598;2022-11-15T11:31:30;12.20;99.90
52979;DHT22;63430;53.186;6.598;2022-11-15T11:33:42;13.20;99.90
52979;DHT22;63430;53.186;6.598;2022-11-15T11:35:58;12.20;99.90
52979;DHT22;63430;53.186;6.598;2022-11-15T11:38:15;12.30;99.90
52979;DHT22;63430;53.186;6.598;2022-11-15T11:40:29;13.20;99.90
52979;DHT22;63430;53.186;6.598;2022-11-15T11:42:37;12.50;99.90
52979;DHT22;63430;53.186;6.598;2022-11-15T11:44:50;12.60;99.90
52979;DHT22;63430;53.186;6.598;2022-11-15T11:46:56;12.80;99.90
52979;DHT22;63430;53.186;6.598;2022-11-15T11:49:08;12.80;99.90
52979;DHT22;63430;53.186;6.598;2022-11-15T11:51:18;12.90;99.90
52979;DHT22;63430;53.186;6.598;2022-11-15T11:53:27;12.90;99.90
52979;DHT22;63430;53.186;6.598;2022-11-15T11:55:37;13.00;99.90
52979;DHT22;63430;53.186;6.598;2022-11-15T11:57:45;13.00;99.90
52979;DHT22;63430;53.186;6.598;2022-11-15T11:59:51;13.00;99.90
52979;DHT22;63430;53.186;6.598;2022-11-15T12:01:57;13.00;99.90
52979;DHT22;63430;53.186;6.598;2022-11-15T12:04:11;13.00;99.90
52979;DHT22;63430;53.186;6.598;2022-11-15T12:06:26;12.90;99.90
52979;DHT22;63430;53.186;6.598;2022-11-15T12:08:35;12.90;99.90
52979;DHT22;63430;53.186;6.598;2022-11-15T12:10:45;12.80;99.90
52979;DHT22;63430;53.186;6.598;2022-11-15T12:12:55;12.80;99.90
52979;DHT22;63430;53.186;6.598;2022-11-15T12:15:04;12.70;99.90
52979;DHT22;63430;53.186;6.598;2022-11-15T12:17:12;12.80;99.90
52979;DHT22;63430;53.186;6.598;2022-11-15T12:19:15;12.70;99.90
52979;DHT22;63430;53.186;6.598;2022-11-15T12:21:35;12.70;99.90
52979;DHT22;63430;53.186;6.598;2022-11-15T12:23:43;13.50;99.90
52979;DHT22;63430;53.186;6.598;2022-11-15T12:25:51;12.60;99.90
52979;DHT22;63430;53.186;6.598;2022-11-15T12:27:59;12.60;99.90
52979;DHT22;63430;53.186;6.598;2022-11-15T12:30:08;12.60;99.90
52979;DHT22;63430;53.186;6.598;2022-11-15T12:32:21;12.50;99.90
52979;DHT22;63430;53.186;6.598;2022-11-15T12:34:36;12.50;99.90
52979;DHT22;63430;53.186;6.598;2022-11-15T12:36:43;12.60;99.90
52979;DHT22;63430;53.186;6.598;2022-11-15T12:38:53;12.50;99.90
52979;DHT22;63430;53.186;6.598;2022-11-15T12:41:12;12.50;99.90
52979;DHT22;63430;53.186;6.598;2022-11-15T12:45:44;13.50;99.90
52979;DHT22;63430;53.186;6.598;2022-11-15T12:47:47;12.60;99.90
52979;DHT22;63430;53.186;6.598;2022-11-15T12:49:50;12.60;99.90
52979;DHT22;63430;53.186;6.598;2022-11-15T12:52:14;12.60;99.90
52979;DHT22;63430;53.186;6.598;2022-11-15T12:54:50;12.60;99.90
52979;DHT22;63430;53.186;6.598;2022-11-15T12:57:26;12.50;99.90
52979;DHT22;63430;53.186;6.598;2022-11-15T12:59:47;12.60;99.90
52979;DHT22;63430;53.186;6.598;2022-11-15T13:01:56;12.60;99.90
52979;DHT22;63430;53.186;6.598;2022-11-15T13:04:08;13.50;99.90
52979;DHT22;63430;53.186;6.598;2022-11-15T13:06:37;12.80;99.90
52979;DHT22;63430;53.186;6.598;2022-11-15T13:08:48;12.90;99.90
52979;DHT22;63430;53.186;6.598;2022-11-15T13:10:50;13.00;99.90
52979;DHT22;63430;53.186;6.598;2022-11-15T13:12:57;13.10;99.90
52979;DHT22;63430;53.186;6.598;2022-11-15T13:15:35;13.20;99.90
52979;DHT22;63430;53.186;6.598;2022-11-15T13:17:44;13.30;99.90
52979;DHT22;63430;53.186;6.598;2022-11-15T13:19:49;13.30;99.90
52979;DHT22;63430;53.186;6.598;2022-11-15T13:21:56;13.20;99.90
52979;DHT22;63430;53.186;6.598;2022-11-15T13:24:20;13.20;99.90
52979;DHT22;63430;53.186;6.598;2022-11-15T13:26:25;13.20;99.90
52979;DHT22;63430;53.186;6.598;2022-11-15T13:28:32;13.10;99.90
52979;DHT22;63430;53.186;6.598;2022-11-15T13:30:37;13.10;99.90
52979;DHT22;63430;53.186;6.598;2022-11-15T13:32:39;13.10;99.90
52979;DHT22;63430;53.186;6.598;2022-11-15T13:34:43;13.10;99.90
52979;DHT22;63430;53.186;6.598;2022-11-15T13:36:53;13.00;99.90
52979;DHT22;63430;53.186;6.598;2022-11-15T13:38:58;13.00;99.90
52979;DHT22;63430;53.186;6.598;2022-11-15T13:41:14;12.90;99.90
52979;DHT22;63430;53.186;6.598;2022-11-15T13:43:34;12.80;99.90
52979;DHT22;63430;53.186;6.598;2022-11-15T13:45:37;12.80;99.90
52979;DHT22;63430;53.186;6.598;2022-11-15T13:47:40;12.80;99.90
52979;DHT22;63430;53.186;6.598;2022-11-15T13:49:42;12.70;99.90
52979;DHT22;63430;53.186;6.598;2022-11-15T13:51:48;12.60;99.90
52979;DHT22;63430;53.186;6.598;2022-11-15T13:53:53;12.70;99.90
52979;DHT22;63430;53.186;6.598;2022-11-15T13:55:58;12.60;99.90
52979;DHT22;63430;53.186;6.598;2022-11-15T13:58:04;12.60;99.90
52979;DHT22;63430;53.186;6.598;2022-11-15T14:00:26;12.60;99.90
52979;DHT22;63430;53.186;6.598;2022-11-15T14:02:31;12.60;99.90
52979;DHT22;63430;53.186;6.598;2022-11-15T14:04:34;13.20;99.90
52979;DHT22;63430;53.186;6.598;2022-11-15T14:06:44;12.60;99.90
52979;DHT22;63430;53.186;6.598;2022-11-15T14:09:03;12.50;99.90
52979;DHT22;63430;53.186;6.598;2022-11-15T14:11:17;12.50;99.90
52979;DHT22;63430;53.186;6.598;2022-11-15T14:13:30;12.50;99.90
52979;DHT22;63430;53.186;6.598;2022-11-15T14:15:35;12.90;99.90
52979;DHT22;63430;53.186;6.598;2022-11-15T14:17:37;13.00;99.90
52979;DHT22;63430;53.186;6.598;2022-11-15T14:20:24;12.40;99.90
52979;DHT22;63430;53.186;6.598;2022-11-15T14:22:30;12.40;99.90
52979;DHT22;63430;53.186;6.598;2022-11-15T14:24:32;12.30;99.90
52979;DHT22;63430;53.186;6.598;2022-11-15T14:26:35;12.30;99.90
52979;DHT22;63430;53.186;6.598;2022-11-15T14:28:40;12.30;99.90
52979;DHT22;63430;53.186;6.598;2022-11-15T14:30:44;13.30;99.90
52979;DHT22;63430;53.186;6.598;2022-11-15T14:32:50;12.20;99.90
52979;DHT22;63430;53.186;6.598;2022-11-15T14:34:55;12.20;99.90
52979;DHT22;63430;53.186;6.598;2022-11-15T14:36:58;12.10;99.90
52979;DHT22;63430;53.186;6.598;2022-11-15T14:39:03;12.10;99.90
52979;DHT22;63430;53.186;6.598;2022-11-15T14:41:16;12.10;99.90
52979;DHT22;63430;53.186;6.598;2022-11-15T14:43:19;12.00;99.90
52979;DHT22;63430;53.186;6.598;2022-11-15T14:45:27;12.30;99.90
52979;DHT22;63430;53.186;6.598;2022-11-15T14:47:29;12.00;99.90
52979;DHT22;63430;53.186;6.598;2022-11-15T14:49:32;11.90;99.90
52979;DHT22;63430;53.186;6.598;2022-11-15T14:51:34;11.80;99.90